Time;durP1;ratioP1;P1;durP2;ratioP2;P2;SDS_P1;SDS_P2;PMS_P1;PMS_P2;Temp;Humidity;BMP_temperature;BMP_pressure;BME280_temperature;BME280_humidity;BME280_pressure;Samples;Min_cycle;Max_cycle;Signal;HPM_P1;HPM_P2
2022/01/25 00:26:24;;;;;;;;;21.25;21.25;;;;;20.57;28.52;102701.91;5076651;28;45421;-60
2022/01/25 00:29:03;;;;;;;;;23.50;20.25;;;;;20.56;28.38;102710.72;5075053;27;46552;-57
2022/01/25 00:31:29;;;;;;;;;26.50;24.00;;;;;20.55;28.47;102704.59;5075183;28;45849;-57
2022/01/25 00:33:54;;;;;;;;;24.75;23.00;;;;;20.52;28.59;102703.81;5076703;28;45404;-59
2022/01/25 00:36:22;;;;;;;;;26.50;23.50;;;;;20.52;28.87;102707.31;5076753;27;45497;-57
2022/01/25 00:38:49;;;;;;;;;24.75;22.00;;;;;20.51;28.39;102707.34;5076205;27;46517;-58
2022/01/25 00:41:16;;;;;;;;;26.50;24.00;;;;;20.48;28.55;102703.03;5076298;27;45236;-58
2022/01/25 00:43:42;;;;;;;;;26.75;25.25;;;;;20.48;29.04;102708.31;5076319;27;45230;-58
2022/01/25 00:46:10;;;;;;;;;21.50;19.00;;;;;20.47;28.39;102710.97;5076467;27;45220;-57
2022/01/25 00:51:18;;;;;;;;;27.75;25.25;;;;;20.43;28.70;102704.06;5075840;27;45411;-59
2022/01/25 00:53:57;;;;;;;;;25.50;25.25;;;;;20.44;28.63;102713.69;5076003;27;45353;-60
2022/01/25 00:56:30;;;;;;;;;26.75;26.25;;;;;20.42;28.47;102712.88;5076433;27;45553;-57
2022/01/25 00:58:56;;;;;;;;;28.25;26.50;;;;;20.40;28.72;102710.25;5076279;27;47039;-57
2022/01/25 01:01:22;;;;;;;;;30.75;27.75;;;;;20.38;28.94;102705.03;5076001;27;45851;-60
2022/01/25 01:03:48;;;;;;;;;26.00;24.75;;;;;20.35;28.64;102701.63;5076014;27;45271;-57
2022/01/25 01:06:15;;;;;;;;;25.50;24.25;;;;;20.34;28.85;102695.47;5076273;27;45400;-58
2022/01/25 01:08:41;;;;;;;;;32.00;24.75;;;;;20.33;28.65;102693.75;5075623;27;45330;-57
2022/01/25 01:11:11;;;;;;;;;31.25;24.75;;;;;20.34;28.33;102708.63;5075720;27;45481;-57
2022/01/25 01:14:05;;;;;;;;;29.25;24.25;;;;;20.31;28.44;102711.38;5075887;27;45440;-57
2022/01/25 01:40:54;;;;;;;;;32.00;23.75;;;;;20.17;28.44;102718.72;5078923;27;45762;-56
2022/01/25 01:43:31;;;;;;;;;24.75;24.00;;;;;20.14;28.94;102719.66;5078853;27;45991;-59
2022/01/25 01:51:04;;;;;;;;;20.25;18.75;;;;;20.14;28.81;102718.78;5078515;27;45484;-60
2022/01/25 01:53:30;;;;;;;;;26.75;23.00;;;;;20.16;28.48;102727.53;5078959;27;45414;-59
2022/01/25 01:55:56;;;;;;;;;28.50;23.75;;;;;20.16;28.76;102707.34;5078914;27;45337;-59
2022/01/25 01:58:21;;;;;;;;;23.00;22.50;;;;;20.21;28.71;102712.50;5078962;28;45310;-59
2022/01/25 02:00:48;;;;;;;;;23.00;21.50;;;;;20.25;28.69;102716.75;5078444;27;45978;-58
2022/01/25 02:03:14;;;;;;;;;23.25;23.25;;;;;20.29;28.60;102725.44;5077271;28;46076;-58
2022/01/25 02:05:40;;;;;;;;;24.75;20.00;;;;;20.34;28.58;102721.81;5078813;27;45314;-60
2022/01/25 02:08:06;;;;;;;;;24.00;20.50;;;;;20.37;28.56;102719.09;5078893;27;45400;-60
2022/01/25 02:10:32;;;;;;;;;24.50;22.50;;;;;20.43;28.28;102719.88;5078709;27;45220;-60
2022/01/25 02:12:57;;;;;;;;;21.50;21.50;;;;;20.47;28.35;102727.66;5078243;27;45175;-60
2022/01/25 02:15:26;;;;;;;;;27.75;22.00;;;;;20.52;28.86;102730.16;5078413;27;45264;-60
2022/01/25 02:22:24;;;;;;;;;28.25;24.50;;;;;20.54;28.23;102723.09;5078738;27;45570;-59
2022/01/25 02:23:26;;;;;;;;;21.75;21.75;;;;;20.61;28.38;102727.28;5078390;28;45345;-59
2022/01/25 02:25:55;;;;;;;;;27.25;22.25;;;;;20.66;28.40;102728.06;5078454;27;45271;-59
2022/01/25 02:28:24;;;;;;;;;27.00;20.75;;;;;20.67;28.13;102724.47;5078521;28;45571;-59
2022/01/25 02:30:49;;;;;;;;;21.50;20.50;;;;;20.69;28.28;102721.84;5078128;27;45548;-59
2022/01/25 02:33:15;;;;;;;;;24.75;20.75;;;;;20.70;28.46;102727.06;5078208;27;45756;-58
2022/01/25 02:35:43;;;;;;;;;23.25;20.00;;;;;20.73;28.34;102723.47;5078349;27;45457;-58
2022/01/25 02:38:09;;;;;;;;;21.50;19.50;;;;;20.75;28.07;102716.41;5078408;27;45564;-59
2022/01/25 02:40:35;;;;;;;;;20.25;18.75;;;;;20.78;28.37;102728.69;5078089;27;47369;-58
2022/01/25 02:43:01;;;;;;;;;25.00;22.50;;;;;20.79;28.34;102733.88;5078310;27;45374;-61
2022/01/25 02:45:32;;;;;;;;;22.25;22.25;;;;;20.79;28.03;102733.00;5078085;27;45337;-58
2022/01/25 02:50:43;;;;;;;;;26.75;24.00;;;;;20.79;28.29;102725.97;5077797;27;45471;-58
2022/01/25 02:53:09;;;;;;;;;15.00;15.00;;;;;20.79;28.01;102728.63;5077780;27;45841;-57
2022/01/25 02:55:34;;;;;;;;;25.75;21.50;;;;;20.77;27.86;102719.88;5078154;27;45385;-59
2022/01/25 02:58:00;;;;;;;;;20.50;14.50;;;;;20.78;28.09;102720.78;5078010;27;45554;-60
2022/01/25 03:00:25;;;;;;;;;21.50;19.50;;;;;20.77;28.13;102727.78;5077570;27;45370;-60
2022/01/25 03:02:51;;;;;;;;;17.25;17.25;;;;;20.72;27.68;102716.50;5076314;28;45430;-59
2022/01/25 03:05:16;;;;;;;;;19.25;18.75;;;;;20.75;27.93;102723.47;5077833;28;45408;-57
2022/01/25 03:07:43;;;;;;;;;19.50;18.75;;;;;20.74;28.12;102727.88;5077908;28;45458;-59
2022/01/25 03:10:10;;;;;;;;;21.75;20.00;;;;;20.74;28.25;102730.50;5077270;27;46263;-61
2022/01/25 03:17:48;;;;;;;;;19.25;18.75;;;;;20.68;27.93;102728.84;5077743;27;45325;-60
2022/01/25 03:21:01;;;;;;;;;19.25;16.75;;;;;20.66;28.01;102725.41;5076967;27;46295;-56
2022/01/25 03:23:16;;;;;;;;;20.75;19.25;;;;;20.66;28.34;102724.53;5074435;27;45413;-58
2022/01/25 03:25:42;;;;;;;;;25.00;19.75;;;;;20.63;27.95;102714.94;5077323;27;45294;-58
2022/01/25 03:28:07;;;;;;;;;20.00;18.25;;;;;20.63;28.08;102717.59;5077646;27;45727;-56
2022/01/25 03:30:33;;;;;;;;;20.25;17.50;;;;;20.61;28.04;102715.91;5077433;27;45350;-57
2022/01/25 03:32:58;;;;;;;;;18.25;16.25;;;;;20.60;28.06;102711.53;5077113;27;45440;-59
2022/01/25 03:35:23;;;;;;;;;20.25;19.25;;;;;20.58;28.26;102718.63;5077141;27;45376;-58
2022/01/25 03:37:48;;;;;;;;;23.00;21.25;;;;;20.55;28.51;102711.66;5077437;27;45659;-60
2022/01/25 03:40:14;;;;;;;;;18.00;18.00;;;;;20.54;28.47;102704.66;5076858;27;45467;-59
2022/01/25 03:42:40;;;;;;;;;22.75;15.50;;;;;20.52;28.06;102699.41;5075636;28;45437;-60
2022/01/25 03:45:07;;;;;;;;;21.75;16.75;;;;;20.49;28.58;102698.63;5075944;27;45328;-59
2022/01/25 03:47:45;;;;;;;;;14.75;12.50;;;;;20.50;27.86;102692.47;5077298;27;45404;-59
2022/01/25 03:50:10;;;;;;;;;18.50;16.50;;;;;20.47;28.14;102690.78;5076783;27;47528;-60
2022/01/25 03:52:37;;;;;;;;;19.25;16.25;;;;;20.45;28.39;102689.09;5077219;27;45255;-60
2022/01/25 03:55:06;;;;;;;;;18.25;17.75;;;;;20.46;28.41;102688.16;5076919;27;45227;-61
2022/01/25 03:57:31;;;;;;;;;19.25;15.00;;;;;20.43;28.57;102693.53;5077066;27;45567;-59
2022/01/25 03:59:59;;;;;;;;;21.50;18.25;;;;;20.41;28.42;102690.06;5076028;27;46053;-60
2022/01/25 04:02:27;;;;;;;;;18.00;16.75;;;;;20.41;28.32;102695.34;5076690;27;45196;-60
2022/01/25 04:04:53;;;;;;;;;17.75;16.50;;;;;20.37;28.29;102695.41;5076782;28;45292;-60
2022/01/25 04:07:27;;;;;;;;;19.75;17.00;;;;;20.37;28.24;102695.41;5076910;27;45284;-60
2022/01/25 04:09:52;;;;;;;;;17.50;13.75;;;;;20.34;28.11;102691.97;5076507;27;47286;-58
2022/01/25 04:12:18;;;;;;;;;21.25;16.75;;;;;20.35;28.44;102702.47;5076374;27;45296;-60
2022/01/25 04:14:43;;;;;;;;;21.00;16.75;;;;;20.34;28.34;102703.38;5076667;27;45406;-61
2022/01/25 04:17:12;;;;;;;;;21.00;19.00;;;;;20.32;28.00;102707.84;5077394;27;45345;-60
2022/01/25 04:19:43;;;;;;;;;24.00;18.25;;;;;20.29;28.69;102710.53;5076851;28;45382;-58
2022/01/25 04:27:23;;;;;;;;;18.00;18.00;;;;;20.34;28.69;102708.63;5076721;27;45422;-57
2022/01/25 04:29:49;;;;;;;;;17.25;16.50;;;;;20.36;28.39;102706.84;5076365;28;46499;-60
2022/01/25 04:32:15;;;;;;;;;16.75;16.75;;;;;20.40;28.19;102710.25;5076369;27;45340;-60
2022/01/25 04:34:45;;;;;;;;;18.50;17.25;;;;;20.44;28.66;102708.44;5076838;28;45303;-57
2022/01/25 04:53:19;;;;;;;;;18.00;14.75;;;;;20.70;27.98;102721.78;5076479;27;45352;-59
2022/01/25 04:58:27;;;;;;;;;16.25;15.25;;;;;20.77;27.99;102708.50;5076282;27;45334;-59
2022/01/25 05:00:53;;;;;;;;;19.25;17.75;;;;;20.79;27.92;102717.19;5075997;27;45258;-58
2022/01/25 05:03:24;;;;;;;;;16.75;16.25;;;;;20.81;28.29;102712.75;5075924;27;45914;-58
2022/01/25 05:06:11;;;;;;;;;20.75;18.50;;;;;20.82;27.92;102712.75;5075926;27;45179;-59
2022/01/25 05:08:42;;;;;;;;;21.25;16.25;;;;;20.85;28.02;102717.91;5076072;27;45468;-60
2022/01/25 05:11:17;;;;;;;;;18.00;15.25;;;;;20.85;28.04;102712.63;5075211;28;47127;-58
2022/01/25 05:16:30;;;;;;;;;22.00;19.25;;;;;20.86;28.25;102713.50;5079458;27;45442;-59
2022/01/25 05:19:20;;;;;;;;;19.50;17.50;;;;;20.87;28.03;102719.63;5079696;28;45529;-59
2022/01/25 05:24:29;;;;;;;;;20.00;18.75;;;;;20.84;28.19;102725.84;5079138;27;45918;-60
2022/01/25 05:26:54;;;;;;;;;20.50;19.00;;;;;20.83;28.20;102718.84;5079236;27;45387;-57
2022/01/25 05:29:20;;;;;;;;;18.25;17.50;;;;;20.80;28.21;102711.91;5079504;27;45386;-58
2022/01/25 05:31:45;;;;;;;;;26.75;19.50;;;;;20.81;28.14;102718.03;5079008;27;46532;-60
2022/01/25 05:34:11;;;;;;;;;23.00;20.50;;;;;20.79;28.07;102717.19;5079479;27;45493;-58
2022/01/25 05:36:38;;;;;;;;;19.00;18.25;;;;;20.78;28.38;102731.31;5079222;27;45413;-59
2022/01/25 05:39:11;;;;;;;;;23.50;18.50;;;;;20.75;28.18;102715.56;5079539;27;45515;-59
2022/01/25 05:41:36;;;;;;;;;25.00;21.00;;;;;20.75;28.12;102731.38;5077473;27;47895;-60
2022/01/25 05:46:53;;;;;;;;;17.50;16.25;;;;;20.71;28.52;102725.31;5078990;27;45323;-60
2022/01/25 05:49:19;;;;;;;;;23.50;20.00;;;;;20.69;28.15;102725.31;5095040;27;45462;-60
2022/01/25 05:51:45;;;;;;;;;24.50;19.75;;;;;20.69;28.19;102722.69;5078703;27;45501;-59
2022/01/25 05:54:10;;;;;;;;;20.25;17.75;;;;;20.68;28.47;102726.22;5078879;27;45488;-61
2022/01/25 05:56:36;;;;;;;;;29.75;21.25;;;;;20.67;28.65;102723.63;5078884;27;45345;-61
2022/01/25 05:59:01;;;;;;;;;26.00;23.75;;;;;20.67;28.29;102723.63;5078892;27;45314;-60
2022/01/25 06:01:27;;;;;;;;;25.00;21.75;;;;;20.65;28.26;102718.41;5078446;27;46536;-56
2022/01/25 06:03:54;;;;;;;;;23.50;21.75;;;;;20.64;28.47;102729.84;5078534;27;45317;-61
2022/01/25 06:06:19;;;;;;;;;22.75;16.50;;;;;20.63;28.14;102721.97;5078725;27;45311;-59
2022/01/25 06:08:44;;;;;;;;;23.75;23.00;;;;;20.61;28.17;102719.38;5078854;27;45260;-57
2022/01/25 06:11:10;;;;;;;;;24.25;21.00;;;;;20.61;28.03;102715.91;5078511;28;46594;-60
2022/01/25 06:13:35;;;;;;;;;25.50;22.75;;;;;20.59;28.58;102715.06;5078429;27;45330;-61
2022/01/25 06:16:01;;;;;;;;;22.00;20.00;;;;;20.59;28.25;102725.59;5078490;28;45178;-60
2022/01/25 06:18:26;;;;;;;;;26.00;22.00;;;;;20.54;28.51;102721.31;5078562;27;45614;-60
2022/01/25 06:20:51;;;;;;;;;23.75;19.50;;;;;20.55;28.23;102730.94;5078224;27;45626;-61
2022/01/25 06:23:17;;;;;;;;;24.75;20.25;;;;;20.54;28.65;102715.19;5077677;27;45302;-61
2022/01/25 06:25:42;;;;;;;;;21.00;19.25;;;;;20.53;28.41;102721.38;5078685;27;45334;-61
2022/01/25 06:28:08;;;;;;;;;24.75;21.25;;;;;20.51;28.38;102715.25;5078468;27;45580;-61
2022/01/25 06:30:33;;;;;;;;;23.75;22.25;;;;;20.48;28.22;102724.13;5077903;27;46481;-60
2022/01/25 06:32:59;;;;;;;;;20.00;19.00;;;;;20.47;28.88;102727.66;5078187;27;45444;-60
2022/01/25 06:35:28;;;;;;;;;23.75;21.50;;;;;20.46;28.59;102731.19;5078202;27;45552;-61
2022/01/25 06:37:54;;;;;;;;;22.25;21.00;;;;;20.47;28.50;102732.03;5078102;27;45572;-60
2022/01/25 06:40:19;;;;;;;;;19.00;16.25;;;;;20.41;28.35;102721.66;5077922;28;45257;-59
2022/01/25 06:42:45;;;;;;;;;21.00;17.50;;;;;20.42;28.73;102718.13;5078307;27;45235;-61
2022/01/25 06:45:12;;;;;;;;;24.50;20.25;;;;;20.41;28.19;102722.53;5078119;27;45291;-60
2022/01/25 06:47:38;;;;;;;;;23.00;22.50;;;;;20.38;28.82;102718.19;5078237;27;45328;-61
2022/01/25 06:50:04;;;;;;;;;26.00;21.50;;;;;20.38;28.24;102720.00;5076520;27;47224;-61
2022/01/25 06:52:30;;;;;;;;;18.50;16.75;;;;;20.36;28.83;102717.38;5077683;27;45403;-62
2022/01/25 06:54:55;;;;;;;;;25.00;20.50;;;;;20.36;28.25;102724.41;5077824;27;45366;-60
2022/01/25 06:57:20;;;;;;;;;22.75;22.75;;;;;20.32;28.68;102715.72;5078066;27;45598;-59
2022/01/25 06:59:46;;;;;;;;;20.75;19.75;;;;;20.32;28.31;102715.72;5078045;27;46219;-60
2022/01/25 07:02:12;;;;;;;;;20.50;19.75;;;;;20.31;28.90;102721.03;5077686;28;45476;-60
2022/01/25 07:04:38;;;;;;;;;24.50;23.25;;;;;20.28;28.60;102718.47;5077864;27;45335;-58
2022/01/25 07:07:04;;;;;;;;;26.25;25.75;;;;;20.28;28.53;102726.38;5077772;27;45557;-58
2022/01/25 07:09:29;;;;;;;;;25.00;20.75;;;;;20.24;28.92;102726.44;5076157;28;47443;-56
2022/01/25 07:11:55;;;;;;;;;26.25;20.25;;;;;20.25;28.42;102724.66;5077392;27;45402;-56
2022/01/25 07:14:20;;;;;;;;;25.50;25.00;;;;;20.23;28.58;102734.38;5077642;27;45285;-57
2022/01/25 07:16:46;;;;;;;;;24.50;22.00;;;;;20.22;29.05;102732.66;5078215;27;45556;-57
2022/01/25 07:19:12;;;;;;;;;24.50;20.50;;;;;20.20;28.63;102730.03;5077417;27;46131;-56
2022/01/25 07:21:37;;;;;;;;;20.25;19.75;;;;;20.19;29.08;102728.31;5077289;27;45245;-61
2022/01/25 07:24:03;;;;;;;;;27.50;23.50;;;;;20.18;28.82;102731.84;5077596;27;45286;-59
2022/01/25 07:26:29;;;;;;;;;24.75;23.50;;;;;20.18;28.64;102741.53;5077657;27;45674;-61
2022/01/25 07:28:54;;;;;;;;;30.75;28.25;;;;;20.16;28.58;102738.94;5077232;27;46381;-58
2022/01/25 07:31:21;;;;;;;;;28.00;26.00;;;;;20.13;28.49;102736.38;5077276;27;45385;-60
2022/01/25 07:33:46;;;;;;;;;29.75;24.75;;;;;20.13;28.83;102740.75;5076616;27;45307;-59
2022/01/25 07:36:12;;;;;;;;;29.75;25.25;;;;;20.10;28.82;102740.84;5077449;27;45405;-56
2022/01/25 07:38:38;;;;;;;;;32.25;26.75;;;;;20.07;28.61;102744.38;5077016;27;45813;-60
2022/01/25 07:41:03;;;;;;;;;35.25;28.25;;;;;20.06;28.27;102754.06;5075820;28;45421;-59
2022/01/25 07:43:28;;;;;;;;;29.25;26.00;;;;;20.01;28.71;102753.28;5077121;27;45398;-60
2022/01/25 07:45:56;;;;;;;;;31.75;29.75;;;;;20.02;28.86;102741.00;5077164;27;45357;-59
2022/01/25 07:48:21;;;;;;;;;29.75;25.75;;;;;19.99;28.73;102749.84;5075472;28;46325;-59
2022/01/25 07:50:48;;;;;;;;;31.75;25.75;;;;;19.99;28.84;102757.75;5076787;27;45322;-60
2022/01/25 07:53:13;;;;;;;;;28.00;26.50;;;;;19.99;28.78;102760.38;5077087;27;45571;-61
2022/01/25 07:55:39;;;;;;;;;32.25;24.75;;;;;20.01;28.70;102765.59;5077258;27;45492;-57
2022/01/25 07:58:05;;;;;;;;;28.75;26.00;;;;;19.99;28.72;102767.41;5076891;27;45863;-60
2022/01/25 08:00:31;;;;;;;;;33.00;29.75;;;;;19.99;28.92;102768.28;5076905;27;45412;-59
2022/01/25 08:02:56;;;;;;;;;28.25;23.50;;;;;19.99;29.00;102762.13;5076781;27;45307;-59
2022/01/25 08:05:24;;;;;;;;;27.50;21.50;;;;;19.98;29.24;102766.53;5077001;27;45478;-60
2022/01/25 08:07:49;;;;;;;;;30.50;25.75;;;;;19.97;28.86;102762.19;5076895;27;45341;-58
2022/01/25 08:10:15;;;;;;;;;27.50;20.00;;;;;19.96;29.00;102763.06;5076725;27;45426;-60
2022/01/25 08:12:40;;;;;;;;;24.50;24.00;;;;;19.95;29.02;102763.13;5076676;27;45222;-58
2022/01/25 08:15:07;;;;;;;;;28.75;23.75;;;;;19.93;29.57;102768.41;5076988;28;45504;-60
2022/01/25 08:17:33;;;;;;;;;32.00;29.50;;;;;19.92;29.27;102777.19;5076525;27;46673;-60
2022/01/25 08:19:58;;;;;;;;;36.00;30.00;;;;;19.88;29.41;102776.41;5076447;27;45434;-59
2022/01/25 08:22:24;;;;;;;;;27.00;24.75;;;;;19.86;29.54;102777.34;5075204;28;45277;-59
2022/01/25 08:24:53;;;;;;;;;31.25;27.75;;;;;19.83;29.58;102780.00;5076982;27;45317;-61
2022/01/25 08:27:20;;;;;;;;;38.25;31.00;;;;;19.80;29.39;102782.69;5076718;27;45444;-59
2022/01/25 08:29:50;;;;;;;;;36.00;31.25;;;;;19.77;29.83;102778.34;5074067;27;45469;-59
2022/01/25 08:32:15;;;;;;;;;30.00;27.50;;;;;19.76;29.37;102776.63;5076477;28;45426;-60
2022/01/25 08:34:41;;;;;;;;;29.00;25.50;;;;;19.72;29.61;102778.44;5076551;27;45602;-61
2022/01/25 08:37:06;;;;;;;;;30.00;30.00;;;;;19.72;29.67;102777.59;5076277;27;46215;-60
2022/01/25 08:39:32;;;;;;;;;33.75;29.50;;;;;19.70;29.47;102777.63;5076448;27;45326;-60
2022/01/25 08:41:57;;;;;;;;;27.75;24.00;;;;;19.68;29.77;102789.94;5076531;27;45476;-59
2022/01/25 08:44:23;;;;;;;;;34.00;29.25;;;;;19.66;29.55;102786.50;5076559;27;45506;-59
2022/01/25 08:46:49;;;;;;;;;31.25;26.50;;;;;19.65;29.38;102778.59;5079843;28;46788;-60
2022/01/25 08:49:15;;;;;;;;;32.75;26.75;;;;;19.62;29.59;102774.28;5079804;27;45210;-60
2022/01/25 08:51:40;;;;;;;;;33.50;30.25;;;;;19.62;29.38;102769.03;5078468;27;45337;-61
2022/01/25 08:54:06;;;;;;;;;29.25;26.25;;;;;19.60;29.28;102778.72;5080110;27;45364;-61
2022/01/25 08:56:32;;;;;;;;;27.75;23.00;;;;;19.57;29.74;102776.13;5079574;27;47290;-59
2022/01/25 08:58:58;;;;;;;;;28.50;25.75;;;;;19.54;29.65;102771.81;5079924;28;45349;-60
2022/01/25 09:01:24;;;;;;;;;24.00;21.25;;;;;19.54;29.33;102778.84;5078660;27;45260;-56
2022/01/25 09:03:49;;;;;;;;;32.50;27.75;;;;;19.54;29.50;102773.59;5079936;28;45647;-58
2022/01/25 09:06:15;;;;;;;;;29.75;26.25;;;;;19.52;29.62;102783.25;5079685;27;46296;-59
2022/01/25 09:08:40;;;;;;;;;27.75;24.75;;;;;19.49;29.39;102778.06;5079401;27;45397;-61
2022/01/25 09:11:06;;;;;;;;;28.25;25.00;;;;;19.47;29.74;102786.84;5079534;27;45263;-59
2022/01/25 09:13:33;;;;;;;;;26.50;23.50;;;;;19.47;29.30;102792.09;5078335;27;45409;-58
2022/01/25 09:15:59;;;;;;;;;30.25;24.50;;;;;19.44;29.58;102786.94;5078208;27;46433;-60
2022/01/25 09:18:25;;;;;;;;;29.50;20.25;;;;;19.44;29.64;102786.94;5078002;27;45375;-62
2022/01/25 09:20:51;;;;;;;;;27.50;26.25;;;;;19.43;29.33;102790.44;5079842;28;45466;-60
2022/01/25 09:23:18;;;;;;;;;31.50;25.25;;;;;19.42;29.38;102791.34;5078253;28;45302;-60
2022/01/25 09:25:43;;;;;;;;;26.50;25.75;;;;;19.40;29.42;102792.28;5079486;27;47252;-60
2022/01/25 09:28:09;;;;;;;;;30.00;24.75;;;;;19.39;29.53;102794.03;5079199;27;45315;-60
2022/01/25 09:30:34;;;;;;;;;26.00;23.50;;;;;19.36;29.45;102788.81;5079332;27;45349;-60
2022/01/25 09:32:59;;;;;;;;;31.50;28.50;;;;;19.35;29.33;102794.97;5079537;27;45695;-60
2022/01/25 09:35:26;;;;;;;;;28.25;27.75;;;;;19.34;29.40;102790.63;5077565;28;46390;-60
2022/01/25 09:37:51;;;;;;;;;28.75;26.00;;;;;19.33;29.69;102799.41;5079325;27;45438;-60
2022/01/25 09:40:17;;;;;;;;;28.50;26.00;;;;;19.33;29.31;102804.66;5079115;27;45378;-60
2022/01/25 09:42:44;;;;;;;;;31.00;28.75;;;;;19.32;29.42;102802.94;5079243;27;45309;-60
2022/01/25 09:45:09;;;;;;;;;27.75;26.00;;;;;19.29;29.67;102801.19;5079107;27;46295;-61
2022/01/25 09:47:37;;;;;;;;;32.75;27.25;;;;;19.29;29.56;102800.34;5078932;27;45505;-60
2022/01/25 09:50:03;;;;;;;;;28.50;27.00;;;;;19.29;29.25;102808.25;5078993;27;45282;-61
2022/01/25 09:52:28;;;;;;;;;26.75;26.75;;;;;19.28;29.59;102811.75;5079379;27;45497;-60
2022/01/25 09:54:56;;;;;;;;;27.25;23.50;;;;;19.26;29.31;102809.19;5078840;27;46603;-60
2022/01/25 09:57:24;;;;;;;;;29.25;26.75;;;;;19.26;29.30;102813.53;5078292;27;45979;-60
2022/01/25 09:59:50;;;;;;;;;26.00;26.00;;;;;19.25;29.69;102811.81;5078859;27;45250;-59
2022/01/25 10:02:40;;;;;;;;;29.25;25.75;;;;;19.23;29.45;102817.09;5079272;27;45956;-60
2022/01/25 10:05:33;;;;;;;;;29.25;24.25;;;;;19.22;29.52;102814.53;5078519;27;45463;-60
2022/01/25 10:08:05;;;;;;;;;29.00;25.50;;;;;19.21;29.58;102820.66;5078662;27;45843;-60
2022/01/25 10:10:33;;;;;;;;;33.50;25.75;;;;;19.19;29.54;102818.03;5078724;27;45368;-60
2022/01/25 10:13:09;;;;;;;;;31.25;24.75;;;;;19.19;29.40;102814.56;5077350;28;45426;-57
2022/01/25 10:15:35;;;;;;;;;27.75;24.25;;;;;19.18;29.63;102815.47;5078316;27;47037;-59
2022/01/25 10:18:00;;;;;;;;;32.75;25.50;;;;;19.17;29.56;102811.97;5078460;27;45793;-61
2022/01/25 10:20:33;;;;;;;;;35.75;30.75;;;;;19.14;29.67;102805.00;5077420;28;45319;-61
2022/01/25 10:23:00;;;;;;;;;29.00;25.25;;;;;19.14;29.43;102818.13;5078781;27;45412;-61
2022/01/25 10:25:37;;;;;;;;;24.50;23.00;;;;;19.14;29.36;102818.13;5077164;27;47204;-60
2022/01/25 10:28:10;;;;;;;;;28.75;28.25;;;;;19.11;29.36;102820.84;5078328;27;45441;-60
2022/01/25 10:30:47;;;;;;;;;25.00;23.75;;;;;19.12;29.57;102822.56;5078437;27;45414;-61
2022/01/25 10:33:35;;;;;;;;;28.00;24.75;;;;;19.12;29.67;102821.69;5078428;27;45259;-59
2022/01/25 10:36:19;;;;;;;;;29.50;27.50;;;;;19.11;29.75;102826.09;5078382;27;46160;-59
2022/01/25 10:38:47;;;;;;;;;27.00;23.75;;;;;19.08;29.53;102820.88;5078032;27;45337;-61
2022/01/25 10:41:19;;;;;;;;;27.25;25.00;;;;;19.10;29.76;102826.09;5078139;27;45623;-61
2022/01/25 10:43:47;;;;;;;;;28.50;25.75;;;;;19.08;29.50;102823.50;5078139;27;45174;-60
2022/01/25 10:46:27;;;;;;;;;24.50;23.50;;;;;19.09;29.73;102822.63;5077969;27;45379;-57
2022/01/25 10:48:58;;;;;;;;;26.25;24.50;;;;;19.07;29.43;102827.03;5078203;27;45404;-60
2022/01/25 10:51:30;;;;;;;;;29.75;27.00;;;;;19.06;29.57;102827.91;5078469;27;45666;-60
2022/01/25 10:53:58;;;;;;;;;29.75;25.25;;;;;19.06;29.54;102833.19;5078306;27;45564;-57
2022/01/25 10:56:24;;;;;;;;;27.50;25.50;;;;;19.06;29.60;102824.44;5078164;27;46139;-60
2022/01/25 10:58:50;;;;;;;;;25.50;23.25;;;;;19.04;29.81;102827.06;5077681;27;45365;-59
2022/01/25 11:01:36;;;;;;;;;20.75;18.25;;;;;19.04;29.48;102829.69;5077891;27;45363;-61
2022/01/25 11:04:13;;;;;;;;;25.00;23.75;;;;;19.04;29.50;102824.44;5078028;27;45404;-59
2022/01/25 11:06:39;;;;;;;;;28.25;23.00;;;;;19.02;29.87;102810.47;5077719;27;47157;-58
2022/01/25 11:09:07;;;;;;;;;26.75;22.00;;;;;19.02;29.74;102818.34;5077651;27;45294;-61
2022/01/25 11:11:40;;;;;;;;;29.25;26.25;;;;;19.01;29.68;102814.00;5077703;27;45355;-59
2022/01/25 11:16:53;;;;;;;;;28.75;24.75;;;;;19.00;29.66;102817.53;5077467;28;45347;-57
2022/01/25 11:19:19;;;;;;;;;27.50;27.50;;;;;18.99;29.61;102813.16;5077385;28;45857;-60
2022/01/25 11:21:46;;;;;;;;;24.25;21.00;;;;;18.99;29.81;102811.38;5077695;27;45500;-59
2022/01/25 11:24:16;;;;;;;;;25.50;23.00;;;;;18.97;29.65;102807.06;5077576;27;45545;-58
2022/01/25 11:26:44;;;;;;;;;25.75;24.75;;;;;18.99;29.57;102823.69;5075905;27;48009;-61
2022/01/25 11:29:09;;;;;;;;;28.75;25.00;;;;;18.97;29.68;102813.16;5077340;27;45437;-59
2022/01/25 11:31:38;;;;;;;;;28.00;24.75;;;;;18.97;29.62;102812.31;5076177;28;45781;-59
2022/01/25 11:34:07;;;;;;;;;32.00;27.00;;;;;18.97;29.47;102817.56;5077360;27;45382;-59
2022/01/25 11:36:42;;;;;;;;;27.00;23.50;;;;;18.96;29.84;102824.56;5077100;27;45302;-60
2022/01/25 11:39:10;;;;;;;;;27.00;24.50;;;;;18.95;29.77;102819.34;5077265;27;45330;-61
2022/01/25 11:41:35;;;;;;;;;24.75;22.00;;;;;18.95;29.57;102814.97;5077410;27;45881;-59
2022/01/25 11:44:14;;;;;;;;;25.50;23.25;;;;;18.94;29.77;102822.88;5077271;27;45317;-58
2022/01/25 11:46:42;;;;;;;;;29.25;25.75;;;;;18.94;29.85;102815.88;5076907;27;46973;-59
2022/01/25 11:49:26;;;;;;;;;26.25;24.25;;;;;18.91;29.70;102812.38;5077003;28;45836;-59
2022/01/25 11:52:05;;;;;;;;;25.25;22.75;;;;;18.93;29.70;102815.84;5077295;27;45299;-59
2022/01/25 11:54:30;;;;;;;;;32.75;25.25;;;;;18.91;29.86;102815.00;5077480;27;45461;-59
2022/01/25 11:57:21;;;;;;;;;28.75;24.00;;;;;18.91;30.03;102809.75;5077077;27;46668;-60
2022/01/25 11:59:55;;;;;;;;;24.50;23.00;;;;;18.90;29.60;102805.41;5076990;27;45860;-59
2022/01/25 12:02:42;;;;;;;;;26.25;18.75;;;;;18.89;29.72;102801.03;5076858;27;45323;-60
2022/01/25 12:05:14;;;;;;;;;27.75;26.25;;;;;18.87;29.91;102798.41;5077158;27;45437;-59
2022/01/25 12:07:43;;;;;;;;;27.00;24.00;;;;;18.89;29.61;102798.41;5076528;27;46220;-61
2022/01/25 12:10:32;;;;;;;;;23.50;22.50;;;;;18.89;29.91;102803.69;5076739;28;45447;-61
2022/01/25 12:13:18;;;;;;;;;25.50;23.25;;;;;18.88;29.71;102800.16;5077113;28;45325;-63
2022/01/25 12:15:45;;;;;;;;;28.00;25.75;;;;;18.87;29.75;102800.19;5075523;28;45771;-60
2022/01/25 12:18:48;;;;;;;;;22.00;21.75;;;;;18.86;29.94;102799.31;5075246;28;46877;-59
2022/01/25 12:21:14;;;;;;;;;29.75;27.25;;;;;18.86;29.99;102794.06;5076018;28;45844;-59
2022/01/25 12:23:45;;;;;;;;;26.00;22.50;;;;;18.85;29.99;102782.69;5076718;27;45282;-60
2022/01/25 12:26:17;;;;;;;;;31.25;25.50;;;;;18.84;30.01;102780.97;5076902;27;45389;-61
2022/01/25 12:28:46;;;;;;;;;27.00;25.25;;;;;18.84;29.85;102780.09;5075066;28;46438;-61
2022/01/25 12:31:16;;;;;;;;;27.25;22.50;;;;;18.81;29.89;102770.50;5076400;28;45890;-60
2022/01/25 12:33:42;;;;;;;;;29.00;25.50;;;;;18.84;29.92;102777.47;5075212;28;45314;-60
2022/01/25 12:36:09;;;;;;;;;28.50;24.50;;;;;18.84;29.81;102778.34;5076631;27;45256;-60
2022/01/25 12:38:51;;;;;;;;;29.00;23.00;;;;;18.90;30.21;102771.25;5076150;27;46678;-60
2022/01/25 12:41:25;;;;;;;;;27.50;26.25;;;;;18.92;30.12;102772.94;5076379;27;45395;-59
2022/01/25 12:43:55;;;;;;;;;19.75;19.75;;;;;18.99;30.41;102776.38;5076512;27;45322;-58
2022/01/25 12:46:22;;;;;;;;;26.50;23.75;;;;;19.05;30.13;102773.63;5076659;27;45533;-59
2022/01/25 12:48:49;;;;;;;;;25.25;24.75;;;;;19.11;30.18;102768.28;5076120;27;45574;-59
2022/01/25 12:51:21;;;;;;;;;23.25;22.00;;;;;19.16;30.16;102765.56;5076126;27;45390;-58
2022/01/25 12:53:50;;;;;;;;;25.25;23.00;;;;;19.21;30.39;102753.16;5074929;28;45420;-60
2022/01/25 12:56:32;;;;;;;;;24.75;23.50;;;;;19.30;29.96;102763.50;5076440;27;45366;-58
2022/01/25 12:59:02;;;;;;;;;25.25;21.75;;;;;19.36;29.99;102752.00;5074775;28;47707;-56